首页
METAR-TAF:

METAR-TAF

机场 :

布瓊布拉國際機場

布琼布拉, 布隆迪

纬度: 03-19S, 经度: 029-19E, 海拔: 782米

METAR: 丢失

时间: 09:47 (07:47 UTC)

预报

该预报发布于2小时和47分钟前的05:00 UTC
预报有效从05日的 06点(UTC)到 06日的 12点(UTC)
风速8节,风向,有时为20节阵风
能见度10公里或以上
少量云层高于3000英尺
多云层高于10000英尺
短暂存在
从 05日的 12点(UTC)到 05日的 18点(UTC)
风速15节,风向,有时为25节阵风
能見度: 6000
少量云层高于2500英尺
少量云层高于3000英尺, 积雨云.
多云层高于9000英尺
雷暴, 雨, 阵雨
成为
从 05日的 19点(UTC)到 05日的 21点(UTC)
风速4节,风向多变
能见度10公里或以上
少量云层高于3000英尺
散云层高于10000英尺
成为
从 06日的 07点(UTC)到 06日的 09点(UTC)
风速10节,风向

TAF: HBBA 050500Z 0506/0612 18008G20KT 9999 FEW030 BKN100 TEMPO 0512/0518 09015G25KT 6000 TSRA OR SHRA FEW025 FEW030CB BKN090 BECMG 0519/0521 VRB04KT 9999 FEW030 SCT100 BECMG 0607/0609 18010KT

超过4000个机场的气象观测和天气预报(METAR&TAF报告)。

可查询的气象台以黄色和红色小点在地图上表示。

将鼠标移到小点上方,可查看气象台名称。

然后点击查看天气观测和预报。

如需切换地图:点击带黑十字的绿色按钮放大地图;点击带横线的绿色按钮缩小地图;或者点击绿色箭头查看邻近地区的地图。


METAR-TAF: